Forside
METAR-TAF:

METAR-TAF

Lufthavne :

Montreal Trudeau, Quebec, Canada

Breddekreds: 45-28N, længdekreds: 073-45W, højde: 31 m

Aktuelle vejr

Denne rapport blev lavet for 1 time og 4 minutter siden, kl. 03:00 UTC
Vind 5 kt fra øst
Temperatur 24°C
Fugtighed 74%
Tryk 1018 hPa
Sigt: 24.1 km
Nogle få skyer i en højde af 18000 ft

METAR: CYUL 230300Z 08005KT 15SM FEW180 24/19 A3006 RMK AC1 SLP181 DENSITY ALT 1100FT

Tid: 00:04 (04:04 UTC)

Vejrudsigter

Denne rapport blev lavet for 1 time og 26 minutter siden, kl. 02:38 UTC
Foreløbig gælder fra 23 på 03 UTC til 23 på 24 UTC
Vind 5 kt fra øst
Sigt: 10 km
Spredte skyer i en højde af 7000 ft
Fra 23 på 1400 UTC
Vind 12 kt fra sydøst
Sigt: 10 km
Nogle få skyer i en højde af 3000 ft
Brudte skyer i en højde af 5000 ft

TAF: CYUL 230238Z 2303/2324 08005KT P6SM SCT070 FM231400 14012KT P6SM FEW030 BKN050 RMK NXT FCST BY 230600Z

Vejrobservationer og prognoser fra mere end 4000 lufthavne (METAR og TAF).

De gule og røde prikker repræsenterer de meteorologiske stationer.

Flyt musen over at se navnet på stationen.

Så klik over at se vejr observationer og prognoser.

At skifte det kort: Klik på de grønne knapper med et sort kors for at zoome ind; på den grønne knap med en bindestreg for at zoome ud; eller på de grønne pile for tilstødende kort.


METAR-TAF: